Main page
METAR-TAF:

METAR-TAF

Airports :

London Biggin Hill, England

London Biggin Hill Airport

latitude: 51-19N, longitude: 000-02E, elevation: 183 m

Current weather observation

The report was made 2 hours and 55 minutes ago, at 21:20 UTC
Wind 8 kt from the South/Southwest
Temperature 11°C
Humidity 87%
Pressure 1022 hPa
Visibility 10 km or more
no clouds below 1500 m and no cumulonimbus

METAR: EGKB 192120Z 20008KT CAVOK 11/09 Q1022

Time: 01:15 (00:15 UTC)

Forecast

The report was made 7 hours and 17 minutes ago, at 16:58 UTC
Forecast valid from 19 at 18 UTC to 19 at 22 UTC
Wind 5 kt from the West/Southwest
Visibility 10 km or more
Scattered clouds at a height of 3500 ft

TAF: EGKB 191658Z 1918/1922 24005KT 9999 SCT035

Weather observations and forecasts of more than 4000 airports (METAR and TAF reports).

The available stations are represented by yellow and red dots on the map.

Hover mouse over dot to see the name of the station.

Then click to see weather observations and forecasts.

To change the map : click on the green buttons with a black cross to zoom in, on the green button with a dash to zoom out, or on the green arrows for adjacent maps.


METAR-TAF: